HAZ2103 ZSHC-ZWSH
Flight info
| Callsign | HAZ2103 |
|---|---|
| Flight time | 5h 27m |
| Altitude | 38100 |
| Route | NIVIK8D NIVIK W135 LUPVI R343 HFE B208 ZHO H14 ZS H142 DOVOP W541 OVKAB W94 XFG W213 IDSUD W213 APESU W197 ANDIM B215 TODOD W112 TUSLI W187 SADAN W186 KQS W176 PUBUR PUBUR6R |
| Aircraft | A359/H-SDE2E3GHIJ3J4J5LM1ORWXY/LB1D1 |
Departure
| Time | 2026-05-05 03:47 |
|---|---|
| Airport | Hangzhou Xiaoshan International Airport (ZSHC) |
Arrival
| Time | 2026-05-05 09:15 |
|---|---|
| Airport | Kashgar Laining International Airport (ZWSH) |
| Time | Latitude | Longitude | Altitude | Speed | Heading |
|---|---|---|---|---|---|
| 2026-05-05 03:03 | 30.23628 | 120.41284 | 38 ft | 0 kts | 153° |
| 2026-05-05 03:36 | 30.23637 | 120.41279 | 37 ft | 4 kts | 153° |
| 2026-05-05 03:36 | 30.23661 | 120.41265 | 36 ft | 4 kts | 153° |
| 2026-05-05 03:37 | 30.23681 | 120.41253 | 37 ft | 4 kts | 143° |
| 2026-05-05 03:37 | 30.23696 | 120.41236 | 38 ft | 4 kts | 105° |
| 2026-05-05 03:37 | 30.23697 | 120.41212 | 38 ft | 4 kts | 70° |
| 2026-05-05 03:37 | 30.23686 | 120.41184 | 37 ft | 4 kts | 61° |
| 2026-05-05 03:38 | 30.23678 | 120.41167 | 36 ft | 0 kts | 63° |
| 2026-05-05 03:41 | 30.23678 | 120.41168 | 36 ft | 0 kts | 63° |
| 2026-05-05 03:41 | 30.23682 | 120.41178 | 37 ft | 3 kts | 63° |
| 2026-05-05 03:41 | 30.23701 | 120.41221 | 38 ft | 9 kts | 63° |
| 2026-05-05 03:41 | 30.23743 | 120.41292 | 38 ft | 13 kts | 38° |
| 2026-05-05 03:42 | 30.23815 | 120.41297 | 38 ft | 6 kts | 19° |
| 2026-05-05 03:42 | 30.23854 | 120.41344 | 38 ft | 10 kts | 55° |
| 2026-05-05 03:42 | 30.23894 | 120.41431 | 38 ft | 14 kts | 63° |
| 2026-05-05 03:42 | 30.23947 | 120.41550 | 38 ft | 19 kts | 63° |
| 2026-05-05 03:43 | 30.24012 | 120.41696 | 37 ft | 22 kts | 63° |
| 2026-05-05 03:43 | 30.24087 | 120.41865 | 38 ft | 25 kts | 63° |
| 2026-05-05 03:43 | 30.24170 | 120.42054 | 38 ft | 28 kts | 63° |
| 2026-05-05 03:43 | 30.24254 | 120.42245 | 38 ft | 22 kts | 63° |
| 2026-05-05 03:44 | 30.24331 | 120.42417 | 38 ft | 26 kts | 63° |
| 2026-05-05 03:44 | 30.24416 | 120.42611 | 38 ft | 28 kts | 63° |
| 2026-05-05 03:44 | 30.24508 | 120.42819 | 38 ft | 28 kts | 63° |
| 2026-05-05 03:44 | 30.24601 | 120.43029 | 38 ft | 30 kts | 63° |
| 2026-05-05 03:45 | 30.24694 | 120.43238 | 38 ft | 28 kts | 63° |
| 2026-05-05 03:45 | 30.24785 | 120.43444 | 38 ft | 28 kts | 63° |
| 2026-05-05 03:45 | 30.24877 | 120.43652 | 38 ft | 28 kts | 63° |
| 2026-05-05 03:45 | 30.24964 | 120.43849 | 38 ft | 28 kts | 63° |
| 2026-05-05 03:46 | 30.25037 | 120.44010 | 38 ft | 19 kts | 53° |
| 2026-05-05 03:46 | 30.25118 | 120.44018 | 39 ft | 11 kts | 334° |
| 2026-05-05 03:46 | 30.25183 | 120.43955 | 39 ft | 14 kts | 290° |
| 2026-05-05 03:46 | 30.25154 | 120.43843 | 37 ft | 16 kts | 242° |
| 2026-05-05 03:47 | 30.25041 | 120.43590 | 38 ft | 66 kts | 243° |
| 2026-05-05 03:47 | 30.24738 | 120.42904 | 38 ft | 124 kts | 243° |
| 2026-05-05 03:47 | 30.24268 | 120.41851 | 126 ft | 164 kts | 242° |
| 2026-05-05 03:47 | 30.23759 | 120.40675 | 788 ft | 161 kts | 242° |
| 2026-05-05 03:48 | 30.23268 | 120.39551 | 1531 ft | 159 kts | 239° |
| 2026-05-05 03:48 | 30.22746 | 120.38411 | 2092 ft | 163 kts | 238° |
| 2026-05-05 03:48 | 30.22212 | 120.37247 | 2771 ft | 162 kts | 239° |
| 2026-05-05 03:48 | 30.21694 | 120.36084 | 3366 ft | 168 kts | 240° |
| 2026-05-05 03:49 | 30.21138 | 120.34814 | 3666 ft | 186 kts | 240° |
| 2026-05-05 03:49 | 30.20512 | 120.33408 | 3963 ft | 209 kts | 240° |
| 2026-05-05 03:49 | 30.19806 | 120.31836 | 4285 ft | 231 kts | 240° |
| 2026-05-05 03:49 | 30.19034 | 120.30114 | 4660 ft | 251 kts | 240° |
| 2026-05-05 03:50 | 30.18213 | 120.28268 | 5220 ft | 264 kts | 240° |
| 2026-05-05 03:50 | 30.17362 | 120.26356 | 5924 ft | 270 kts | 240° |
| 2026-05-05 03:50 | 30.16499 | 120.24416 | 6662 ft | 276 kts | 241° |
| 2026-05-05 03:50 | 30.15696 | 120.22367 | 7432 ft | 281 kts | 251° |
| 2026-05-05 03:51 | 30.15533 | 120.20116 | 8255 ft | 285 kts | 279° |
| 2026-05-05 03:51 | 30.16335 | 120.18031 | 9085 ft | 287 kts | 308° |
| 2026-05-05 03:51 | 30.17856 | 120.16603 | 9961 ft | 288 kts | 328° |
| 2026-05-05 03:51 | 30.19615 | 120.15480 | 10751 ft | 289 kts | 330° |
| 2026-05-05 03:52 | 30.21405 | 120.14395 | 11540 ft | 291 kts | 331° |
| 2026-05-05 03:52 | 30.23213 | 120.13297 | 12220 ft | 299 kts | 330° |
| 2026-05-05 03:52 | 30.25105 | 120.12140 | 12610 ft | 316 kts | 331° |
| 2026-05-05 03:52 | 30.27094 | 120.10910 | 12978 ft | 332 kts | 330° |
| 2026-05-05 03:53 | 30.29175 | 120.09600 | 13358 ft | 348 kts | 329° |
| 2026-05-05 03:53 | 30.31341 | 120.08229 | 13721 ft | 362 kts | 329° |
| 2026-05-05 03:53 | 30.33586 | 120.06809 | 14061 ft | 374 kts | 329° |
| 2026-05-05 03:53 | 30.35895 | 120.05348 | 14529 ft | 381 kts | 329° |
| 2026-05-05 03:54 | 30.38244 | 120.03862 | 15061 ft | 386 kts | 329° |
| 2026-05-05 03:54 | 30.40613 | 120.02365 | 15628 ft | 390 kts | 329° |
| 2026-05-05 03:54 | 30.42966 | 120.00875 | 16205 ft | 394 kts | 329° |
| 2026-05-05 03:54 | 30.45388 | 119.99342 | 16773 ft | 398 kts | 329° |
| 2026-05-05 03:55 | 30.47826 | 119.97796 | 17390 ft | 402 kts | 329° |
| 2026-05-05 03:55 | 30.50287 | 119.96236 | 17997 ft | 405 kts | 329° |
| 2026-05-05 03:55 | 30.52776 | 119.94663 | 18556 ft | 409 kts | 329° |
| 2026-05-05 03:55 | 30.55279 | 119.93075 | 19088 ft | 412 kts | 329° |
| 2026-05-05 03:56 | 30.57807 | 119.91472 | 19615 ft | 415 kts | 329° |
| 2026-05-05 03:56 | 30.60352 | 119.89869 | 20165 ft | 418 kts | 330° |
| 2026-05-05 03:56 | 30.63067 | 119.88612 | 20713 ft | 425 kts | 343° |
| 2026-05-05 03:56 | 30.66029 | 119.88250 | 21251 ft | 433 kts | 0° |
| 2026-05-05 03:57 | 30.69034 | 119.88772 | 21826 ft | 439 kts | 8° |
| 2026-05-05 03:57 | 30.72059 | 119.89247 | 22348 ft | 440 kts | 1° |
| 2026-05-05 03:57 | 30.75122 | 119.89131 | 22910 ft | 440 kts | 350° |
| 2026-05-05 03:57 | 30.78090 | 119.88336 | 23472 ft | 439 kts | 339° |
| 2026-05-05 03:58 | 30.80888 | 119.86888 | 23967 ft | 439 kts | 328° |
| 2026-05-05 03:58 | 30.83471 | 119.84985 | 24442 ft | 440 kts | 323° |
| 2026-05-05 03:58 | 30.85980 | 119.82916 | 24925 ft | 442 kts | 321° |
| 2026-05-05 03:58 | 30.88446 | 119.80768 | 25381 ft | 444 kts | 319° |
| 2026-05-05 03:59 | 30.90878 | 119.78609 | 25852 ft | 447 kts | 319° |
| 2026-05-05 03:59 | 30.93358 | 119.76406 | 26315 ft | 450 kts | 319° |
| 2026-05-05 03:59 | 30.95862 | 119.74200 | 26778 ft | 452 kts | 319° |
| 2026-05-05 03:59 | 30.98391 | 119.71990 | 27225 ft | 455 kts | 319° |
| 2026-05-05 04:00 | 31.00936 | 119.69781 | 27685 ft | 458 kts | 319° |
| 2026-05-05 04:00 | 31.03505 | 119.67561 | 28124 ft | 461 kts | 319° |
| 2026-05-05 04:00 | 31.06095 | 119.65327 | 28544 ft | 464 kts | 319° |
| 2026-05-05 04:00 | 31.08696 | 119.63082 | 28959 ft | 466 kts | 319° |
| 2026-05-05 04:01 | 31.11313 | 119.60822 | 29378 ft | 469 kts | 319° |
| 2026-05-05 04:01 | 31.13943 | 119.58548 | 29746 ft | 472 kts | 319° |
| 2026-05-05 04:01 | 31.16590 | 119.56257 | 30111 ft | 475 kts | 319° |
| 2026-05-05 04:01 | 31.19248 | 119.53955 | 30423 ft | 477 kts | 319° |
| 2026-05-05 04:02 | 31.21918 | 119.51639 | 30736 ft | 479 kts | 319° |
| 2026-05-05 04:02 | 31.24602 | 119.49312 | 31033 ft | 481 kts | 319° |
| 2026-05-05 04:02 | 31.27254 | 119.47011 | 31388 ft | 481 kts | 319° |
| 2026-05-05 04:02 | 31.29937 | 119.44682 | 31845 ft | 479 kts | 319° |
| 2026-05-05 04:03 | 31.32604 | 119.42366 | 32311 ft | 477 kts | 319° |
| 2026-05-05 04:03 | 31.35265 | 119.40053 | 32736 ft | 475 kts | 319° |
| 2026-05-05 04:03 | 31.37913 | 119.37748 | 33144 ft | 474 kts | 318° |
| 2026-05-05 04:03 | 31.40555 | 119.35445 | 33545 ft | 473 kts | 318° |
| 2026-05-05 04:04 | 31.43184 | 119.33152 | 33950 ft | 472 kts | 318° |
| 2026-05-05 04:04 | 31.45816 | 119.30857 | 34292 ft | 470 kts | 318° |
| 2026-05-05 04:04 | 31.48438 | 119.28567 | 34601 ft | 469 kts | 318° |
| 2026-05-05 04:04 | 31.51053 | 119.26282 | 34882 ft | 469 kts | 318° |
| 2026-05-05 04:05 | 31.53664 | 119.23993 | 35172 ft | 468 kts | 318° |
| 2026-05-05 04:05 | 31.56270 | 119.21705 | 35441 ft | 468 kts | 317° |
| 2026-05-05 04:05 | 31.58840 | 119.19377 | 35701 ft | 465 kts | 314° |
| 2026-05-05 04:05 | 31.61112 | 119.16725 | 35948 ft | 458 kts | 305° |
| 2026-05-05 04:06 | 31.62923 | 119.13703 | 36188 ft | 452 kts | 295° |
| 2026-05-05 04:06 | 31.64204 | 119.10355 | 36429 ft | 446 kts | 285° |
| 2026-05-05 04:06 | 31.64894 | 119.06830 | 36671 ft | 442 kts | 276° |
| 2026-05-05 04:06 | 31.65218 | 119.03242 | 36915 ft | 441 kts | 274° |
| 2026-05-05 04:07 | 31.65470 | 118.99657 | 37142 ft | 441 kts | 273° |
| 2026-05-05 04:07 | 31.65704 | 118.96071 | 37376 ft | 441 kts | 273° |
| 2026-05-05 04:07 | 31.65940 | 118.92485 | 37629 ft | 440 kts | 273° |
| 2026-05-05 04:07 | 31.66185 | 118.88912 | 37838 ft | 440 kts | 273° |
| 2026-05-05 04:08 | 31.66439 | 118.85341 | 38048 ft | 439 kts | 273° |
| 2026-05-05 04:08 | 31.66701 | 118.81750 | 38153 ft | 441 kts | 274° |
| 2026-05-05 04:08 | 31.67234 | 118.74553 | 38143 ft | 443 kts | 274° |
| 2026-05-05 04:09 | 31.67767 | 118.67353 | 38121 ft | 443 kts | 274° |
| 2026-05-05 04:09 | 31.68294 | 118.60148 | 38124 ft | 442 kts | 274° |
| 2026-05-05 04:10 | 31.68816 | 118.52948 | 38116 ft | 442 kts | 274° |
| 2026-05-05 04:10 | 31.69333 | 118.45751 | 38117 ft | 442 kts | 274° |
| 2026-05-05 04:11 | 31.69846 | 118.38552 | 38118 ft | 442 kts | 274° |
| 2026-05-05 04:11 | 31.70354 | 118.31360 | 38116 ft | 442 kts | 274° |
| 2026-05-05 04:12 | 31.70858 | 118.24164 | 38114 ft | 442 kts | 274° |
| 2026-05-05 04:12 | 31.71359 | 118.16977 | 38120 ft | 442 kts | 274° |
| 2026-05-05 04:13 | 31.71855 | 118.09822 | 38116 ft | 442 kts | 274° |
| 2026-05-05 04:13 | 31.72385 | 118.02632 | 38113 ft | 442 kts | 274° |
| 2026-05-05 04:14 | 31.72926 | 117.95449 | 38115 ft | 442 kts | 274° |
| 2026-05-05 04:14 | 31.73461 | 117.88259 | 38107 ft | 442 kts | 274° |
| 2026-05-05 04:15 | 31.73990 | 117.81066 | 38110 ft | 442 kts | 274° |
| 2026-05-05 04:15 | 31.74512 | 117.73883 | 38106 ft | 442 kts | 274° |
| 2026-05-05 04:16 | 31.75031 | 117.66693 | 38105 ft | 442 kts | 274° |
| 2026-05-05 04:16 | 31.75546 | 117.59506 | 38101 ft | 441 kts | 274° |
| 2026-05-05 04:17 | 31.76058 | 117.52317 | 38104 ft | 441 kts | 274° |
| 2026-05-05 04:17 | 31.76564 | 117.45134 | 38102 ft | 441 kts | 274° |
| 2026-05-05 04:18 | 31.77079 | 117.37944 | 38094 ft | 441 kts | 275° |
| 2026-05-05 04:18 | 31.78473 | 117.30922 | 38097 ft | 445 kts | 288° |
| 2026-05-05 04:19 | 31.81536 | 117.24561 | 38097 ft | 452 kts | 303° |
| 2026-05-05 04:19 | 31.85538 | 117.18831 | 38086 ft | 455 kts | 306° |
| 2026-05-05 04:20 | 31.89685 | 117.13206 | 38093 ft | 455 kts | 307° |
| 2026-05-05 04:20 | 31.93819 | 117.07572 | 38090 ft | 455 kts | 306° |
| 2026-05-05 04:21 | 31.97228 | 117.02863 | 38098 ft | 455 kts | 306° |
| 2026-05-05 04:21 | 32.02013 | 116.96221 | 38092 ft | 454 kts | 306° |
| 2026-05-05 04:22 | 32.06077 | 116.90578 | 38095 ft | 454 kts | 306° |
| 2026-05-05 04:22 | 32.10159 | 116.84904 | 38091 ft | 454 kts | 306° |
| 2026-05-05 04:23 | 32.14248 | 116.79218 | 38090 ft | 454 kts | 306° |
| 2026-05-05 04:23 | 32.18333 | 116.73538 | 38085 ft | 454 kts | 306° |
| 2026-05-05 04:24 | 32.21689 | 116.68719 | 38077 ft | 453 kts | 305° |
| 2026-05-05 04:25 | 32.27569 | 116.59999 | 38075 ft | 452 kts | 305° |
| 2026-05-05 04:25 | 32.31459 | 116.54222 | 38074 ft | 452 kts | 305° |
| 2026-05-05 04:26 | 32.35380 | 116.48409 | 38071 ft | 452 kts | 305° |
| 2026-05-05 04:26 | 32.39357 | 116.42642 | 38075 ft | 452 kts | 306° |
| 2026-05-05 04:27 | 32.43397 | 116.36928 | 38070 ft | 453 kts | 306° |
| 2026-05-05 04:27 | 32.47443 | 116.31222 | 38066 ft | 452 kts | 306° |
| 2026-05-05 04:28 | 32.51477 | 116.25502 | 38066 ft | 452 kts | 306° |
| 2026-05-05 04:28 | 32.55496 | 116.19778 | 38062 ft | 452 kts | 306° |
| 2026-05-05 04:29 | 32.59525 | 116.14049 | 38066 ft | 452 kts | 306° |
| 2026-05-05 04:29 | 32.63561 | 116.08324 | 38059 ft | 452 kts | 306° |
| 2026-05-05 04:30 | 32.67590 | 116.02602 | 38055 ft | 452 kts | 306° |
| 2026-05-05 04:30 | 32.71617 | 115.96871 | 38049 ft | 452 kts | 306° |
| 2026-05-05 04:31 | 32.75640 | 115.91137 | 38052 ft | 452 kts | 306° |
| 2026-05-05 04:31 | 32.79659 | 115.85398 | 38050 ft | 452 kts | 306° |
| 2026-05-05 04:32 | 32.83676 | 115.79653 | 38052 ft | 452 kts | 306° |
| 2026-05-05 04:32 | 32.87695 | 115.73898 | 38035 ft | 452 kts | 307° |
| 2026-05-05 04:33 | 32.91786 | 115.68206 | 38049 ft | 453 kts | 308° |
| 2026-05-05 04:33 | 32.95940 | 115.62572 | 38039 ft | 453 kts | 308° |
| 2026-05-05 04:34 | 33.00072 | 115.56977 | 38048 ft | 453 kts | 308° |
| 2026-05-05 04:34 | 33.04218 | 115.51335 | 38035 ft | 453 kts | 308° |
| 2026-05-05 04:35 | 33.08365 | 115.45672 | 38043 ft | 453 kts | 308° |
| 2026-05-05 04:35 | 33.12501 | 115.40008 | 38037 ft | 453 kts | 308° |
| 2026-05-05 04:36 | 33.16636 | 115.34333 | 38036 ft | 453 kts | 308° |
| 2026-05-05 04:36 | 33.20770 | 115.28650 | 38033 ft | 453 kts | 308° |
| 2026-05-05 04:37 | 33.24903 | 115.22961 | 38029 ft | 453 kts | 308° |
| 2026-05-05 04:37 | 33.29035 | 115.17265 | 38030 ft | 454 kts | 308° |
| 2026-05-05 04:38 | 33.33168 | 115.11559 | 38029 ft | 454 kts | 308° |
| 2026-05-05 04:38 | 33.37298 | 115.05847 | 38024 ft | 454 kts | 308° |
| 2026-05-05 04:39 | 33.41425 | 115.00130 | 38016 ft | 454 kts | 308° |
| 2026-05-05 04:39 | 33.45556 | 114.94396 | 38017 ft | 455 kts | 308° |
| 2026-05-05 04:40 | 33.49685 | 114.88661 | 38018 ft | 455 kts | 308° |
| 2026-05-05 04:40 | 33.53813 | 114.82917 | 38013 ft | 455 kts | 308° |
| 2026-05-05 04:41 | 33.57945 | 114.77158 | 38019 ft | 455 kts | 308° |
| 2026-05-05 04:41 | 33.62072 | 114.71402 | 38012 ft | 455 kts | 308° |
| 2026-05-05 04:42 | 33.65872 | 114.65355 | 38010 ft | 453 kts | 298° |
| 2026-05-05 04:42 | 33.68359 | 114.58506 | 38004 ft | 451 kts | 289° |
| 2026-05-05 04:43 | 33.70347 | 114.51366 | 38004 ft | 451 kts | 287° |
| 2026-05-05 04:43 | 33.72231 | 114.44179 | 38005 ft | 451 kts | 287° |
| 2026-05-05 04:44 | 33.74105 | 114.36987 | 37999 ft | 451 kts | 287° |
| 2026-05-05 04:44 | 33.75048 | 114.33397 | 37892 ft | 451 kts | 287° |
| 2026-05-05 04:44 | 33.75983 | 114.29796 | 37982 ft | 452 kts | 289° |
| 2026-05-05 04:45 | 33.77891 | 114.22517 | 37997 ft | 461 kts | 290° |
| 2026-05-05 04:45 | 33.79845 | 114.15160 | 37994 ft | 462 kts | 290° |
| 2026-05-05 04:46 | 33.81791 | 114.07811 | 37994 ft | 461 kts | 290° |
| 2026-05-05 04:46 | 33.83748 | 114.00478 | 37988 ft | 460 kts | 290° |
| 2026-05-05 04:47 | 33.85724 | 113.93154 | 37992 ft | 460 kts | 290° |
| 2026-05-05 04:47 | 33.87693 | 113.85832 | 37984 ft | 460 kts | 290° |
| 2026-05-05 04:48 | 33.89657 | 113.78503 | 37983 ft | 460 kts | 290° |
| 2026-05-05 04:48 | 33.91609 | 113.71186 | 37980 ft | 460 kts | 290° |
| 2026-05-05 04:49 | 33.93560 | 113.63855 | 37978 ft | 459 kts | 290° |
| 2026-05-05 04:49 | 33.95505 | 113.56526 | 37986 ft | 459 kts | 290° |
| 2026-05-05 04:50 | 33.97444 | 113.49202 | 37976 ft | 459 kts | 290° |
| 2026-05-05 04:50 | 33.99380 | 113.41873 | 37960 ft | 459 kts | 290° |
| 2026-05-05 04:51 | 34.01309 | 113.34546 | 37975 ft | 459 kts | 290° |
| 2026-05-05 04:51 | 34.03241 | 113.27217 | 37967 ft | 458 kts | 291° |
| 2026-05-05 04:52 | 34.05197 | 113.19914 | 37965 ft | 458 kts | 291° |
| 2026-05-05 04:52 | 34.07161 | 113.12595 | 37960 ft | 458 kts | 291° |
| 2026-05-05 04:53 | 34.09114 | 113.05285 | 37964 ft | 458 kts | 291° |
| 2026-05-05 04:53 | 34.11058 | 112.97980 | 37956 ft | 458 kts | 291° |
| 2026-05-05 04:54 | 34.13000 | 112.90661 | 37948 ft | 457 kts | 291° |
| 2026-05-05 04:54 | 34.14294 | 112.83111 | 37947 ft | 464 kts | 278° |
| 2026-05-05 04:55 | 34.14042 | 112.75269 | 37941 ft | 470 kts | 269° |
| 2026-05-05 04:55 | 34.13308 | 112.67411 | 37934 ft | 472 kts | 268° |
| 2026-05-05 04:56 | 34.12504 | 112.59551 | 37939 ft | 472 kts | 268° |
| 2026-05-05 04:56 | 34.11729 | 112.51706 | 37931 ft | 471 kts | 268° |
| 2026-05-05 04:56 | 34.11358 | 112.47779 | 38044 ft | 467 kts | 265° |
| 2026-05-05 04:57 | 34.11005 | 112.43970 | 37922 ft | 458 kts | 265° |
| 2026-05-05 04:57 | 34.10299 | 112.36382 | 37927 ft | 453 kts | 265° |
| 2026-05-05 04:58 | 34.09608 | 112.28829 | 37928 ft | 453 kts | 265° |
| 2026-05-05 04:58 | 34.08946 | 112.21264 | 37930 ft | 453 kts | 265° |
| 2026-05-05 04:59 | 34.08288 | 112.13708 | 37929 ft | 453 kts | 265° |
| 2026-05-05 04:59 | 34.07626 | 112.06161 | 37932 ft | 452 kts | 265° |
| 2026-05-05 05:00 | 34.06958 | 111.98615 | 37932 ft | 452 kts | 265° |
| 2026-05-05 05:00 | 34.06283 | 111.91071 | 37930 ft | 452 kts | 265° |
| 2026-05-05 05:01 | 34.05605 | 111.83542 | 37937 ft | 452 kts | 265° |
| 2026-05-05 05:01 | 34.05264 | 111.79771 | 37678 ft | 452 kts | 265° |
| 2026-05-05 05:01 | 34.04906 | 111.76011 | 37857 ft | 451 kts | 269° |
| 2026-05-05 05:02 | 34.04196 | 111.68442 | 37942 ft | 458 kts | 270° |
| 2026-05-05 05:02 | 34.03505 | 111.60731 | 37943 ft | 466 kts | 270° |
| 2026-05-05 05:03 | 34.02803 | 111.52956 | 37941 ft | 466 kts | 270° |
| 2026-05-05 05:03 | 34.02086 | 111.45203 | 37943 ft | 465 kts | 269° |
| 2026-05-05 05:04 | 34.01352 | 111.37451 | 37945 ft | 465 kts | 269° |
| 2026-05-05 05:04 | 34.00620 | 111.29701 | 37941 ft | 465 kts | 269° |
| 2026-05-05 05:05 | 33.99886 | 111.21970 | 37940 ft | 466 kts | 269° |
| 2026-05-05 05:05 | 33.99148 | 111.14255 | 37943 ft | 465 kts | 269° |
| 2026-05-05 05:06 | 33.98400 | 111.06518 | 37941 ft | 465 kts | 269° |
| 2026-05-05 05:06 | 33.97651 | 110.98790 | 37938 ft | 465 kts | 269° |
| 2026-05-05 05:07 | 33.96896 | 110.91057 | 37936 ft | 465 kts | 269° |
| 2026-05-05 05:07 | 33.96137 | 110.83326 | 37942 ft | 465 kts | 269° |
| 2026-05-05 05:08 | 33.95373 | 110.75590 | 37941 ft | 465 kts | 269° |
| 2026-05-05 05:08 | 33.94602 | 110.67869 | 37940 ft | 464 kts | 269° |
| 2026-05-05 05:09 | 33.93828 | 110.60145 | 37937 ft | 465 kts | 269° |
| 2026-05-05 05:09 | 33.93088 | 110.52411 | 37937 ft | 464 kts | 269° |
| 2026-05-05 05:10 | 33.92388 | 110.44691 | 37946 ft | 464 kts | 269° |
| 2026-05-05 05:10 | 33.91796 | 110.38281 | 37940 ft | 463 kts | 269° |
| 2026-05-05 05:11 | 33.91084 | 110.30583 | 37949 ft | 463 kts | 269° |
| 2026-05-05 05:11 | 33.90252 | 110.21586 | 37945 ft | 462 kts | 270° |
| 2026-05-05 05:12 | 33.89660 | 110.15203 | 37952 ft | 462 kts | 269° |
| 2026-05-05 05:12 | 33.88917 | 110.07519 | 37953 ft | 462 kts | 269° |
| 2026-05-05 05:13 | 33.88190 | 109.99835 | 37952 ft | 461 kts | 271° |
| 2026-05-05 05:13 | 33.88392 | 109.92239 | 37953 ft | 450 kts | 284° |
| 2026-05-05 05:14 | 33.90156 | 109.85095 | 37959 ft | 444 kts | 294° |
| 2026-05-05 05:14 | 33.92396 | 109.78190 | 37957 ft | 442 kts | 296° |
| 2026-05-05 05:15 | 33.94701 | 109.71335 | 37953 ft | 442 kts | 296° |
| 2026-05-05 05:15 | 33.96974 | 109.64453 | 37951 ft | 442 kts | 295° |
| 2026-05-05 05:16 | 33.99217 | 109.57551 | 37951 ft | 443 kts | 295° |
| 2026-05-05 05:16 | 34.01447 | 109.50645 | 37948 ft | 442 kts | 295° |
| 2026-05-05 05:17 | 34.03673 | 109.43741 | 37941 ft | 441 kts | 295° |
| 2026-05-05 05:17 | 34.05891 | 109.36852 | 37936 ft | 440 kts | 295° |
| 2026-05-05 05:18 | 34.08099 | 109.29973 | 37933 ft | 440 kts | 295° |
| 2026-05-05 05:18 | 34.10303 | 109.23097 | 37924 ft | 439 kts | 295° |
| 2026-05-05 05:19 | 34.12501 | 109.16225 | 37916 ft | 438 kts | 295° |
| 2026-05-05 05:19 | 34.14692 | 109.09361 | 37911 ft | 438 kts | 295° |
| 2026-05-05 05:20 | 34.16861 | 109.02547 | 37904 ft | 437 kts | 295° |
| 2026-05-05 05:20 | 34.19168 | 108.95777 | 37900 ft | 434 kts | 300° |
| 2026-05-05 05:21 | 34.22539 | 108.89824 | 37900 ft | 427 kts | 314° |
| 2026-05-05 05:21 | 34.27120 | 108.85319 | 37906 ft | 426 kts | 329° |
| 2026-05-05 05:22 | 34.32600 | 108.82620 | 37910 ft | 428 kts | 342° |
| 2026-05-05 05:22 | 34.38410 | 108.80959 | 37901 ft | 429 kts | 345° |
| 2026-05-05 05:23 | 34.44250 | 108.79435 | 37907 ft | 429 kts | 345° |
| 2026-05-05 05:23 | 34.50089 | 108.77886 | 37901 ft | 429 kts | 345° |
| 2026-05-05 05:24 | 34.55918 | 108.76299 | 37899 ft | 429 kts | 344° |
| 2026-05-05 05:24 | 34.61736 | 108.74697 | 37901 ft | 429 kts | 344° |
| 2026-05-05 05:25 | 34.67554 | 108.73091 | 37908 ft | 429 kts | 344° |
| 2026-05-05 05:25 | 34.73232 | 108.70954 | 37908 ft | 426 kts | 334° |
| 2026-05-05 05:26 | 34.78227 | 108.67184 | 37910 ft | 424 kts | 320° |
| 2026-05-05 05:26 | 34.82392 | 108.62072 | 37914 ft | 426 kts | 314° |
| 2026-05-05 05:27 | 34.86327 | 108.56689 | 37908 ft | 426 kts | 313° |
| 2026-05-05 05:27 | 34.92217 | 108.48597 | 37913 ft | 425 kts | 313° |
| 2026-05-05 05:28 | 34.96163 | 108.43238 | 37904 ft | 425 kts | 313° |
| 2026-05-05 05:28 | 35.00117 | 108.37877 | 37894 ft | 425 kts | 313° |
| 2026-05-05 05:29 | 35.04067 | 108.32515 | 37885 ft | 425 kts | 313° |
| 2026-05-05 05:29 | 35.08014 | 108.27145 | 37883 ft | 425 kts | 313° |
| 2026-05-05 05:30 | 35.11959 | 108.21767 | 37880 ft | 425 kts | 313° |
| 2026-05-05 05:30 | 35.15902 | 108.16383 | 37871 ft | 425 kts | 313° |
| 2026-05-05 05:31 | 35.19842 | 108.10994 | 37863 ft | 425 kts | 313° |
| 2026-05-05 05:31 | 35.23746 | 108.05648 | 37857 ft | 424 kts | 313° |
| 2026-05-05 05:32 | 35.27703 | 108.00222 | 37850 ft | 425 kts | 313° |
| 2026-05-05 05:32 | 35.31605 | 107.94859 | 37847 ft | 424 kts | 313° |
| 2026-05-05 05:33 | 35.35521 | 107.89472 | 37839 ft | 424 kts | 313° |
| 2026-05-05 05:33 | 35.39451 | 107.84081 | 37835 ft | 423 kts | 313° |
| 2026-05-05 05:34 | 35.43373 | 107.78700 | 37830 ft | 423 kts | 313° |
| 2026-05-05 05:34 | 35.47442 | 107.73488 | 37822 ft | 422 kts | 319° |
| 2026-05-05 05:35 | 35.52321 | 107.69514 | 37814 ft | 423 kts | 333° |
| 2026-05-05 05:35 | 35.57937 | 107.67269 | 37824 ft | 427 kts | 343° |
| 2026-05-05 05:36 | 35.63757 | 107.65729 | 37808 ft | 428 kts | 345° |
| 2026-05-05 05:36 | 35.69486 | 107.63875 | 37808 ft | 424 kts | 336° |
| 2026-05-05 05:37 | 35.74599 | 107.60392 | 37803 ft | 420 kts | 322° |
| 2026-05-05 05:37 | 35.78663 | 107.55243 | 37799 ft | 421 kts | 307° |
| 2026-05-05 05:38 | 35.81350 | 107.48808 | 37795 ft | 427 kts | 293° |
| 2026-05-05 05:38 | 35.83047 | 107.41827 | 37792 ft | 429 kts | 290° |
| 2026-05-05 05:39 | 35.84602 | 107.34718 | 37791 ft | 429 kts | 289° |
| 2026-05-05 05:39 | 35.86171 | 107.27624 | 37780 ft | 429 kts | 290° |
| 2026-05-05 05:40 | 35.87748 | 107.20538 | 37778 ft | 429 kts | 289° |
| 2026-05-05 05:40 | 35.89327 | 107.13449 | 37787 ft | 428 kts | 290° |
| 2026-05-05 05:41 | 35.90848 | 107.06346 | 37767 ft | 429 kts | 288° |
| 2026-05-05 05:41 | 35.92274 | 106.99194 | 37770 ft | 429 kts | 288° |
| 2026-05-05 05:42 | 35.93680 | 106.92050 | 37767 ft | 428 kts | 288° |
| 2026-05-05 05:42 | 35.95092 | 106.84911 | 37770 ft | 428 kts | 288° |
| 2026-05-05 05:43 | 35.96507 | 106.77775 | 37764 ft | 428 kts | 288° |
| 2026-05-05 05:43 | 35.97918 | 106.70646 | 37766 ft | 427 kts | 288° |
| 2026-05-05 05:44 | 35.99353 | 106.63533 | 37767 ft | 426 kts | 288° |
| 2026-05-05 05:44 | 36.00805 | 106.56440 | 37763 ft | 426 kts | 288° |
| 2026-05-05 05:45 | 36.02245 | 106.49392 | 37766 ft | 426 kts | 288° |
| 2026-05-05 05:45 | 36.03682 | 106.42306 | 37766 ft | 425 kts | 288° |
| 2026-05-05 05:46 | 36.05114 | 106.35219 | 37766 ft | 425 kts | 288° |
| 2026-05-05 05:46 | 36.06538 | 106.28144 | 37764 ft | 425 kts | 288° |
| 2026-05-05 05:47 | 36.07969 | 106.21052 | 37768 ft | 424 kts | 288° |
| 2026-05-05 05:47 | 36.09501 | 106.14021 | 37773 ft | 423 kts | 289° |
| 2026-05-05 05:48 | 36.11089 | 106.07010 | 37777 ft | 423 kts | 289° |
| 2026-05-05 05:48 | 36.12670 | 105.99993 | 37783 ft | 424 kts | 289° |
| 2026-05-05 05:49 | 36.14234 | 105.92971 | 37785 ft | 423 kts | 289° |
| 2026-05-05 05:49 | 36.15789 | 105.85945 | 37792 ft | 423 kts | 289° |
| 2026-05-05 05:50 | 36.17338 | 105.78923 | 37792 ft | 423 kts | 289° |
| 2026-05-05 05:50 | 36.18881 | 105.71886 | 37798 ft | 423 kts | 289° |
| 2026-05-05 05:51 | 36.20423 | 105.64854 | 37796 ft | 423 kts | 289° |
| 2026-05-05 05:51 | 36.21953 | 105.57867 | 37799 ft | 423 kts | 289° |
| 2026-05-05 05:52 | 36.23498 | 105.50783 | 37790 ft | 423 kts | 288° |
| 2026-05-05 05:52 | 36.25018 | 105.43790 | 37786 ft | 423 kts | 288° |
| 2026-05-05 05:53 | 36.26542 | 105.36755 | 37787 ft | 423 kts | 288° |
| 2026-05-05 05:53 | 36.28063 | 105.29713 | 37777 ft | 423 kts | 288° |
| 2026-05-05 05:54 | 36.29582 | 105.22656 | 37773 ft | 424 kts | 288° |
| 2026-05-05 05:54 | 36.31096 | 105.15602 | 37768 ft | 423 kts | 288° |
| 2026-05-05 05:55 | 36.32604 | 105.08552 | 37752 ft | 423 kts | 288° |
| 2026-05-05 05:55 | 36.34106 | 105.01502 | 37743 ft | 423 kts | 288° |
| 2026-05-05 05:56 | 36.35605 | 104.94449 | 37738 ft | 423 kts | 288° |
| 2026-05-05 05:56 | 36.37098 | 104.87398 | 37718 ft | 423 kts | 288° |
| 2026-05-05 05:57 | 36.38588 | 104.80347 | 37712 ft | 422 kts | 287° |
| 2026-05-05 05:57 | 36.40074 | 104.73294 | 37712 ft | 422 kts | 287° |
| 2026-05-05 05:58 | 36.41554 | 104.66243 | 37703 ft | 422 kts | 287° |
| 2026-05-05 05:58 | 36.43036 | 104.59182 | 37709 ft | 422 kts | 287° |
| 2026-05-05 05:59 | 36.44504 | 104.52127 | 37706 ft | 422 kts | 287° |
| 2026-05-05 05:59 | 36.45966 | 104.45081 | 37703 ft | 421 kts | 287° |
| 2026-05-05 06:00 | 36.47181 | 104.39230 | 37700 ft | 421 kts | 287° |
| 2026-05-05 06:00 | 36.49073 | 104.32390 | 37698 ft | 418 kts | 296° |
| 2026-05-05 06:01 | 36.51684 | 104.25942 | 37692 ft | 418 kts | 298° |
| 2026-05-05 06:01 | 36.54423 | 104.19576 | 37691 ft | 417 kts | 298° |
| 2026-05-05 06:02 | 36.57166 | 104.13215 | 37689 ft | 417 kts | 298° |
| 2026-05-05 06:02 | 36.59888 | 104.06844 | 37695 ft | 417 kts | 298° |
| 2026-05-05 06:03 | 36.62607 | 104.00477 | 37726 ft | 417 kts | 298° |
| 2026-05-05 06:03 | 36.65369 | 103.94122 | 37766 ft | 417 kts | 298° |
| 2026-05-05 06:04 | 36.68139 | 103.87771 | 37799 ft | 417 kts | 298° |
| 2026-05-05 06:04 | 36.70905 | 103.81408 | 37816 ft | 417 kts | 298° |
| 2026-05-05 06:05 | 36.73663 | 103.75041 | 37820 ft | 417 kts | 298° |
| 2026-05-05 06:05 | 36.76417 | 103.68671 | 37813 ft | 417 kts | 298° |
| 2026-05-05 06:06 | 36.79164 | 103.62302 | 37791 ft | 417 kts | 298° |
| 2026-05-05 06:06 | 36.81914 | 103.55914 | 37764 ft | 417 kts | 298° |
| 2026-05-05 06:07 | 36.84655 | 103.49534 | 37727 ft | 417 kts | 298° |
| 2026-05-05 06:07 | 36.87395 | 103.43149 | 37725 ft | 417 kts | 298° |
| 2026-05-05 06:08 | 36.90128 | 103.36763 | 37728 ft | 417 kts | 298° |
| 2026-05-05 06:08 | 36.92857 | 103.30376 | 37732 ft | 417 kts | 298° |
| 2026-05-05 06:09 | 36.95727 | 103.24129 | 37736 ft | 417 kts | 301° |
| 2026-05-05 06:09 | 36.98859 | 103.17960 | 37746 ft | 417 kts | 302° |
| 2026-05-05 06:10 | 37.01986 | 103.11897 | 37755 ft | 418 kts | 302° |
| 2026-05-05 06:10 | 37.05105 | 103.05761 | 37761 ft | 418 kts | 301° |
| 2026-05-05 06:11 | 37.08201 | 102.99600 | 37766 ft | 418 kts | 301° |
| 2026-05-05 06:11 | 37.11287 | 102.93431 | 37773 ft | 418 kts | 301° |
| 2026-05-05 06:12 | 37.14366 | 102.87265 | 37774 ft | 418 kts | 301° |
| 2026-05-05 06:12 | 37.17450 | 102.81083 | 37783 ft | 418 kts | 301° |
| 2026-05-05 06:13 | 37.20529 | 102.74898 | 37785 ft | 418 kts | 301° |
| 2026-05-05 06:13 | 37.23611 | 102.68698 | 37789 ft | 419 kts | 300° |
| 2026-05-05 06:14 | 37.26689 | 102.62493 | 37787 ft | 419 kts | 300° |
| 2026-05-05 06:14 | 37.29765 | 102.56282 | 37796 ft | 419 kts | 300° |
| 2026-05-05 06:15 | 37.32840 | 102.50061 | 37806 ft | 419 kts | 300° |
| 2026-05-05 06:15 | 37.35618 | 102.43629 | 37806 ft | 418 kts | 292° |
| 2026-05-05 06:16 | 37.37346 | 102.36647 | 37806 ft | 418 kts | 285° |
| 2026-05-05 06:16 | 37.38747 | 102.29544 | 37809 ft | 419 kts | 284° |
| 2026-05-05 06:17 | 37.40099 | 102.22422 | 37812 ft | 419 kts | 284° |
| 2026-05-05 06:17 | 37.41466 | 102.15321 | 37814 ft | 417 kts | 284° |
| 2026-05-05 06:18 | 37.42841 | 102.08235 | 37811 ft | 418 kts | 284° |
| 2026-05-05 06:18 | 37.44223 | 102.01119 | 37814 ft | 419 kts | 284° |
| 2026-05-05 06:19 | 37.45595 | 101.94033 | 37814 ft | 419 kts | 284° |
| 2026-05-05 06:19 | 37.46964 | 101.86929 | 37810 ft | 417 kts | 284° |
| 2026-05-05 06:20 | 37.48331 | 101.79804 | 37814 ft | 419 kts | 283° |
| 2026-05-05 06:20 | 37.49699 | 101.72658 | 37811 ft | 420 kts | 283° |
| 2026-05-05 06:21 | 37.51658 | 101.65743 | 37816 ft | 420 kts | 293° |
| 2026-05-05 06:21 | 37.54235 | 101.59123 | 37815 ft | 421 kts | 295° |
| 2026-05-05 06:22 | 37.56915 | 101.52555 | 37818 ft | 422 kts | 295° |
| 2026-05-05 06:22 | 37.59609 | 101.45970 | 37809 ft | 423 kts | 295° |
| 2026-05-05 06:23 | 37.62286 | 101.39358 | 37814 ft | 423 kts | 295° |
| 2026-05-05 06:23 | 37.64948 | 101.32737 | 37821 ft | 424 kts | 295° |
| 2026-05-05 06:24 | 37.67728 | 101.26175 | 37835 ft | 424 kts | 296° |
| 2026-05-05 06:24 | 37.70636 | 101.19673 | 37838 ft | 425 kts | 297° |
| 2026-05-05 06:25 | 37.73550 | 101.13168 | 37832 ft | 426 kts | 297° |
| 2026-05-05 06:25 | 37.76449 | 101.06626 | 37828 ft | 426 kts | 296° |
| 2026-05-05 06:26 | 37.79331 | 101.00081 | 37833 ft | 426 kts | 296° |
| 2026-05-05 06:26 | 37.82206 | 100.93536 | 37835 ft | 427 kts | 296° |
| 2026-05-05 06:27 | 37.86507 | 100.83641 | 37837 ft | 428 kts | 296° |
| 2026-05-05 06:28 | 37.89363 | 100.77024 | 37835 ft | 428 kts | 296° |
| 2026-05-05 06:28 | 37.92216 | 100.70401 | 37840 ft | 428 kts | 296° |
| 2026-05-05 06:29 | 37.95071 | 100.63771 | 37848 ft | 429 kts | 296° |
| 2026-05-05 06:29 | 37.97907 | 100.57172 | 37842 ft | 429 kts | 295° |
| 2026-05-05 06:30 | 38.00757 | 100.50521 | 37845 ft | 430 kts | 295° |
| 2026-05-05 06:30 | 38.03608 | 100.43855 | 37840 ft | 430 kts | 295° |
| 2026-05-05 06:31 | 38.06457 | 100.37186 | 37839 ft | 430 kts | 295° |
| 2026-05-05 06:31 | 38.09300 | 100.30513 | 37838 ft | 430 kts | 295° |
| 2026-05-05 06:32 | 38.12146 | 100.23819 | 37842 ft | 431 kts | 295° |
| 2026-05-05 06:32 | 38.14992 | 100.17111 | 37841 ft | 430 kts | 295° |
| 2026-05-05 06:33 | 38.17829 | 100.10406 | 37854 ft | 431 kts | 295° |
| 2026-05-05 06:33 | 38.20662 | 100.03699 | 37857 ft | 431 kts | 295° |
| 2026-05-05 06:34 | 38.23530 | 99.97020 | 37859 ft | 430 kts | 296° |
| 2026-05-05 06:34 | 38.26462 | 99.90366 | 37867 ft | 431 kts | 296° |
| 2026-05-05 06:35 | 38.29394 | 99.83715 | 37869 ft | 431 kts | 296° |
| 2026-05-05 06:35 | 38.32319 | 99.77043 | 37884 ft | 432 kts | 296° |
| 2026-05-05 06:36 | 38.35239 | 99.70358 | 37881 ft | 432 kts | 296° |
| 2026-05-05 06:36 | 38.38160 | 99.63658 | 37894 ft | 432 kts | 296° |
| 2026-05-05 06:37 | 38.41058 | 99.56995 | 37894 ft | 433 kts | 295° |
| 2026-05-05 06:37 | 38.43993 | 99.50233 | 37905 ft | 433 kts | 295° |
| 2026-05-05 06:38 | 38.46891 | 99.43541 | 37913 ft | 434 kts | 295° |
| 2026-05-05 06:38 | 38.49804 | 99.36798 | 37912 ft | 434 kts | 295° |
| 2026-05-05 06:39 | 38.52713 | 99.30054 | 37908 ft | 433 kts | 295° |
| 2026-05-05 06:39 | 38.55621 | 99.23290 | 37915 ft | 436 kts | 295° |
| 2026-05-05 06:40 | 38.58537 | 99.16500 | 37919 ft | 436 kts | 295° |
| 2026-05-05 06:40 | 38.61450 | 99.09723 | 37916 ft | 435 kts | 295° |
| 2026-05-05 06:41 | 38.64347 | 99.02941 | 37914 ft | 434 kts | 294° |
| 2026-05-05 06:41 | 38.67242 | 98.96142 | 37918 ft | 436 kts | 294° |
| 2026-05-05 06:42 | 38.70148 | 98.89311 | 37919 ft | 437 kts | 294° |
| 2026-05-05 06:42 | 38.73049 | 98.82481 | 37910 ft | 437 kts | 294° |
| 2026-05-05 06:43 | 38.75949 | 98.75637 | 37916 ft | 437 kts | 294° |
| 2026-05-05 06:43 | 38.78851 | 98.68775 | 37911 ft | 437 kts | 294° |
| 2026-05-05 06:44 | 38.81745 | 98.61918 | 37913 ft | 437 kts | 294° |
| 2026-05-05 06:44 | 38.84634 | 98.55058 | 37900 ft | 438 kts | 294° |
| 2026-05-05 06:45 | 38.87522 | 98.48180 | 37901 ft | 438 kts | 294° |
| 2026-05-05 06:45 | 38.90409 | 98.41294 | 37898 ft | 438 kts | 294° |
| 2026-05-05 06:46 | 38.92804 | 98.35572 | 37897 ft | 438 kts | 294° |
| 2026-05-05 06:46 | 38.95682 | 98.28670 | 37898 ft | 438 kts | 294° |
| 2026-05-05 06:47 | 38.98565 | 98.21753 | 37900 ft | 439 kts | 294° |
| 2026-05-05 06:47 | 39.01444 | 98.14829 | 37906 ft | 440 kts | 294° |
| 2026-05-05 06:48 | 39.04320 | 98.07894 | 37909 ft | 440 kts | 294° |
| 2026-05-05 06:48 | 39.07206 | 98.00921 | 37910 ft | 442 kts | 294° |
| 2026-05-05 06:49 | 39.10088 | 97.93938 | 37928 ft | 443 kts | 294° |
| 2026-05-05 06:49 | 39.12969 | 97.86929 | 37913 ft | 442 kts | 294° |
| 2026-05-05 06:50 | 39.15852 | 97.79922 | 37929 ft | 443 kts | 294° |
| 2026-05-05 06:50 | 39.18736 | 97.72895 | 37932 ft | 444 kts | 294° |
| 2026-05-05 06:51 | 39.21625 | 97.65838 | 37935 ft | 445 kts | 294° |
| 2026-05-05 06:51 | 39.24502 | 97.58771 | 37944 ft | 445 kts | 293° |
| 2026-05-05 06:52 | 39.27344 | 97.51729 | 37948 ft | 446 kts | 293° |
| 2026-05-05 06:52 | 39.30201 | 97.44628 | 37946 ft | 446 kts | 293° |
| 2026-05-05 06:53 | 39.33060 | 97.37509 | 37950 ft | 447 kts | 292° |
| 2026-05-05 06:53 | 39.35925 | 97.30362 | 37947 ft | 448 kts | 292° |
| 2026-05-05 06:54 | 39.38782 | 97.23221 | 37940 ft | 448 kts | 292° |
| 2026-05-05 06:54 | 39.41640 | 97.16061 | 37949 ft | 448 kts | 292° |
| 2026-05-05 06:55 | 39.44498 | 97.08884 | 37947 ft | 449 kts | 292° |
| 2026-05-05 06:55 | 39.47355 | 97.01701 | 37931 ft | 448 kts | 292° |
| 2026-05-05 06:56 | 39.50234 | 96.94536 | 37953 ft | 450 kts | 292° |
| 2026-05-05 06:56 | 39.53123 | 96.87349 | 37950 ft | 450 kts | 291° |
| 2026-05-05 06:57 | 39.55990 | 96.80157 | 37949 ft | 449 kts | 291° |
| 2026-05-05 06:57 | 39.58853 | 96.72957 | 37959 ft | 449 kts | 291° |
| 2026-05-05 06:58 | 39.61332 | 96.65598 | 37960 ft | 441 kts | 282° |
| 2026-05-05 06:58 | 39.62266 | 96.57865 | 37970 ft | 431 kts | 267° |
| 2026-05-05 06:59 | 39.61666 | 96.50230 | 37964 ft | 427 kts | 258° |
| 2026-05-05 06:59 | 39.60654 | 96.42646 | 37971 ft | 426 kts | 257° |
| 2026-05-05 07:00 | 39.59615 | 96.35085 | 37965 ft | 426 kts | 258° |
| 2026-05-05 07:00 | 39.58603 | 96.27495 | 37952 ft | 427 kts | 257° |
| 2026-05-05 07:01 | 39.57589 | 96.19915 | 37958 ft | 428 kts | 257° |
| 2026-05-05 07:01 | 39.56584 | 96.12325 | 37948 ft | 426 kts | 258° |
| 2026-05-05 07:02 | 39.55673 | 96.04730 | 37955 ft | 427 kts | 259° |
| 2026-05-05 07:02 | 39.54854 | 95.97103 | 37951 ft | 427 kts | 259° |
| 2026-05-05 07:03 | 39.54045 | 95.89480 | 37954 ft | 428 kts | 259° |
| 2026-05-05 07:03 | 39.53215 | 95.81872 | 37962 ft | 428 kts | 259° |
| 2026-05-05 07:04 | 39.52364 | 95.74247 | 37959 ft | 429 kts | 259° |
| 2026-05-05 07:04 | 39.51502 | 95.66606 | 37961 ft | 429 kts | 259° |
| 2026-05-05 07:05 | 39.50631 | 95.58960 | 37962 ft | 429 kts | 259° |
| 2026-05-05 07:05 | 39.49757 | 95.51307 | 37966 ft | 429 kts | 259° |
| 2026-05-05 07:06 | 39.48880 | 95.43656 | 37970 ft | 430 kts | 259° |
| 2026-05-05 07:06 | 39.47997 | 95.36008 | 37976 ft | 430 kts | 259° |
| 2026-05-05 07:07 | 39.47108 | 95.28351 | 37969 ft | 430 kts | 259° |
| 2026-05-05 07:07 | 39.46216 | 95.20718 | 37964 ft | 430 kts | 259° |
| 2026-05-05 07:08 | 39.45314 | 95.13046 | 37962 ft | 430 kts | 259° |
| 2026-05-05 07:08 | 39.44409 | 95.05395 | 37958 ft | 430 kts | 259° |
| 2026-05-05 07:09 | 39.43499 | 94.97743 | 37953 ft | 430 kts | 259° |
| 2026-05-05 07:09 | 39.42582 | 94.90080 | 37955 ft | 431 kts | 259° |
| 2026-05-05 07:10 | 39.41662 | 94.82423 | 37940 ft | 432 kts | 258° |
| 2026-05-05 07:10 | 39.40730 | 94.74784 | 37945 ft | 434 kts | 258° |
| 2026-05-05 07:11 | 39.39793 | 94.67094 | 37940 ft | 432 kts | 258° |
| 2026-05-05 07:11 | 39.38855 | 94.59410 | 37927 ft | 432 kts | 258° |
| 2026-05-05 07:12 | 39.37911 | 94.51721 | 37933 ft | 434 kts | 258° |
| 2026-05-05 07:12 | 39.36961 | 94.43999 | 37926 ft | 435 kts | 258° |
| 2026-05-05 07:13 | 39.36000 | 94.36269 | 37932 ft | 435 kts | 258° |
| 2026-05-05 07:13 | 39.35032 | 94.28548 | 37929 ft | 436 kts | 258° |
| 2026-05-05 07:14 | 39.34061 | 94.20829 | 37939 ft | 436 kts | 257° |
| 2026-05-05 07:14 | 39.33080 | 94.13093 | 37939 ft | 437 kts | 257° |
| 2026-05-05 07:15 | 39.32092 | 94.05332 | 37940 ft | 437 kts | 257° |
| 2026-05-05 07:15 | 39.31102 | 93.97600 | 37951 ft | 437 kts | 257° |
| 2026-05-05 07:16 | 39.30103 | 93.89848 | 37960 ft | 438 kts | 257° |
| 2026-05-05 07:16 | 39.29091 | 93.82072 | 37970 ft | 439 kts | 256° |
| 2026-05-05 07:17 | 39.28081 | 93.74308 | 37969 ft | 438 kts | 256° |
| 2026-05-05 07:17 | 39.27078 | 93.66575 | 37982 ft | 437 kts | 256° |
| 2026-05-05 07:18 | 39.26053 | 93.58838 | 37987 ft | 438 kts | 256° |
| 2026-05-05 07:18 | 39.25038 | 93.51113 | 37973 ft | 436 kts | 256° |
| 2026-05-05 07:19 | 39.24015 | 93.43400 | 37976 ft | 436 kts | 256° |
| 2026-05-05 07:19 | 39.22989 | 93.35696 | 37976 ft | 436 kts | 256° |
| 2026-05-05 07:20 | 39.21962 | 93.28013 | 37961 ft | 434 kts | 256° |
| 2026-05-05 07:20 | 39.20917 | 93.20331 | 37961 ft | 435 kts | 256° |
| 2026-05-05 07:21 | 39.19879 | 93.12640 | 37961 ft | 435 kts | 256° |
| 2026-05-05 07:21 | 39.18833 | 93.04961 | 37946 ft | 435 kts | 256° |
| 2026-05-05 07:22 | 39.17776 | 92.97289 | 37953 ft | 434 kts | 256° |
| 2026-05-05 07:22 | 39.16720 | 92.89674 | 37950 ft | 434 kts | 256° |
| 2026-05-05 07:23 | 39.15656 | 92.82016 | 37941 ft | 434 kts | 255° |
| 2026-05-05 07:23 | 39.14580 | 92.74353 | 37945 ft | 435 kts | 256° |
| 2026-05-05 07:24 | 39.13507 | 92.66680 | 37947 ft | 435 kts | 256° |
| 2026-05-05 07:24 | 39.12439 | 92.59003 | 37936 ft | 436 kts | 256° |
| 2026-05-05 07:25 | 39.11358 | 92.51323 | 37948 ft | 436 kts | 256° |
| 2026-05-05 07:25 | 39.10257 | 92.43634 | 37954 ft | 437 kts | 256° |
| 2026-05-05 07:26 | 39.09172 | 92.35930 | 37950 ft | 437 kts | 256° |
| 2026-05-05 07:26 | 39.08812 | 92.28078 | 37961 ft | 446 kts | 269° |
| 2026-05-05 07:27 | 39.09744 | 92.20132 | 37961 ft | 450 kts | 275° |
| 2026-05-05 07:27 | 39.10963 | 92.12202 | 37970 ft | 451 kts | 275° |
| 2026-05-05 07:28 | 39.12208 | 92.04292 | 37978 ft | 451 kts | 276° |
| 2026-05-05 07:28 | 39.13437 | 91.96376 | 37984 ft | 450 kts | 276° |
| 2026-05-05 07:29 | 39.14652 | 91.88453 | 37992 ft | 451 kts | 275° |
| 2026-05-05 07:29 | 39.15851 | 91.80514 | 37989 ft | 451 kts | 275° |
| 2026-05-05 07:30 | 39.17024 | 91.72599 | 37998 ft | 449 kts | 275° |
| 2026-05-05 07:30 | 39.18783 | 91.60757 | 37982 ft | 451 kts | 275° |
| 2026-05-05 07:31 | 39.19954 | 91.52824 | 37985 ft | 452 kts | 275° |
| 2026-05-05 07:31 | 39.21116 | 91.44919 | 37983 ft | 452 kts | 275° |
| 2026-05-05 07:32 | 39.22413 | 91.36916 | 37975 ft | 454 kts | 277° |
| 2026-05-05 07:32 | 39.23880 | 91.28967 | 37971 ft | 455 kts | 278° |
| 2026-05-05 07:33 | 39.25390 | 91.21080 | 37972 ft | 456 kts | 278° |
| 2026-05-05 07:33 | 39.26867 | 91.13125 | 37959 ft | 456 kts | 277° |
| 2026-05-05 07:34 | 39.28074 | 91.06457 | 37957 ft | 457 kts | 277° |
| 2026-05-05 07:34 | 39.29513 | 90.98453 | 37951 ft | 457 kts | 277° |
| 2026-05-05 07:35 | 39.31177 | 90.89179 | 37945 ft | 458 kts | 278° |
| 2026-05-05 07:35 | 39.32369 | 90.82519 | 37945 ft | 458 kts | 278° |
| 2026-05-05 07:36 | 39.33801 | 90.74490 | 37938 ft | 458 kts | 278° |
| 2026-05-05 07:36 | 39.35229 | 90.66447 | 37930 ft | 458 kts | 278° |
| 2026-05-05 07:37 | 39.36648 | 90.58420 | 37923 ft | 458 kts | 278° |
| 2026-05-05 07:37 | 39.38058 | 90.50414 | 37917 ft | 458 kts | 278° |
| 2026-05-05 07:38 | 39.39470 | 90.42355 | 37909 ft | 458 kts | 278° |
| 2026-05-05 07:38 | 39.40872 | 90.34317 | 37895 ft | 459 kts | 278° |
| 2026-05-05 07:39 | 39.42269 | 90.26279 | 37882 ft | 459 kts | 277° |
| 2026-05-05 07:39 | 39.43660 | 90.18240 | 37875 ft | 459 kts | 277° |
| 2026-05-05 07:40 | 39.45049 | 90.10173 | 37864 ft | 459 kts | 278° |
| 2026-05-05 07:40 | 39.46422 | 90.02167 | 37854 ft | 459 kts | 277° |
| 2026-05-05 07:41 | 39.47806 | 89.94056 | 37850 ft | 459 kts | 277° |
| 2026-05-05 07:41 | 39.49173 | 89.86015 | 37844 ft | 460 kts | 277° |
| 2026-05-05 07:42 | 39.50540 | 89.77938 | 37837 ft | 460 kts | 277° |
| 2026-05-05 07:42 | 39.51908 | 89.69816 | 37828 ft | 460 kts | 277° |
| 2026-05-05 07:43 | 39.53267 | 89.61707 | 37828 ft | 461 kts | 277° |
| 2026-05-05 07:43 | 39.54621 | 89.53597 | 37825 ft | 461 kts | 277° |
| 2026-05-05 07:44 | 39.55971 | 89.45476 | 37821 ft | 461 kts | 277° |
| 2026-05-05 07:44 | 39.57315 | 89.37353 | 37815 ft | 461 kts | 277° |
| 2026-05-05 07:45 | 39.58651 | 89.29237 | 37816 ft | 460 kts | 276° |
| 2026-05-05 07:45 | 39.59982 | 89.21116 | 37817 ft | 460 kts | 276° |
| 2026-05-05 07:46 | 39.61296 | 89.13057 | 37817 ft | 460 kts | 276° |
| 2026-05-05 07:46 | 39.62612 | 89.04956 | 37813 ft | 459 kts | 276° |
| 2026-05-05 07:47 | 39.63921 | 88.96856 | 37818 ft | 458 kts | 276° |
| 2026-05-05 07:47 | 39.65222 | 88.88770 | 37816 ft | 457 kts | 276° |
| 2026-05-05 07:48 | 39.66515 | 88.80698 | 37817 ft | 456 kts | 276° |
| 2026-05-05 07:48 | 39.67799 | 88.72642 | 37813 ft | 455 kts | 276° |
| 2026-05-05 07:49 | 39.69072 | 88.64610 | 37817 ft | 454 kts | 276° |
| 2026-05-05 07:49 | 39.70341 | 88.56574 | 37814 ft | 454 kts | 276° |
| 2026-05-05 07:50 | 39.71600 | 88.48556 | 37815 ft | 453 kts | 276° |
| 2026-05-05 07:50 | 39.72856 | 88.40529 | 37816 ft | 453 kts | 276° |
| 2026-05-05 07:51 | 39.74104 | 88.32511 | 37817 ft | 453 kts | 276° |
| 2026-05-05 07:51 | 39.75345 | 88.24494 | 37815 ft | 452 kts | 276° |
| 2026-05-05 07:52 | 39.76579 | 88.16489 | 37813 ft | 452 kts | 276° |
| 2026-05-05 07:52 | 39.77807 | 88.08483 | 37814 ft | 451 kts | 276° |
| 2026-05-05 07:53 | 39.79029 | 88.00486 | 37816 ft | 451 kts | 276° |
| 2026-05-05 07:53 | 39.80242 | 87.92496 | 37820 ft | 450 kts | 276° |
| 2026-05-05 07:54 | 39.81447 | 87.84519 | 37816 ft | 450 kts | 276° |
| 2026-05-05 07:54 | 39.82638 | 87.76591 | 37815 ft | 450 kts | 276° |
| 2026-05-05 07:55 | 39.83840 | 87.68550 | 37813 ft | 449 kts | 276° |
| 2026-05-05 07:55 | 39.85028 | 87.60569 | 37811 ft | 449 kts | 277° |
| 2026-05-05 07:56 | 39.86210 | 87.52587 | 37809 ft | 449 kts | 277° |
| 2026-05-05 07:56 | 39.87384 | 87.44613 | 37823 ft | 449 kts | 277° |
| 2026-05-05 07:57 | 39.88547 | 87.36679 | 37817 ft | 449 kts | 277° |
| 2026-05-05 07:57 | 39.89711 | 87.28698 | 37815 ft | 449 kts | 277° |
| 2026-05-05 07:58 | 39.90868 | 87.20724 | 37811 ft | 449 kts | 277° |
| 2026-05-05 07:58 | 39.92023 | 87.12727 | 37815 ft | 449 kts | 277° |
| 2026-05-05 07:59 | 39.93170 | 87.04736 | 37817 ft | 449 kts | 276° |
| 2026-05-05 07:59 | 39.94314 | 86.96731 | 37814 ft | 449 kts | 277° |
| 2026-05-05 08:00 | 39.95452 | 86.88727 | 37812 ft | 450 kts | 277° |
| 2026-05-05 08:00 | 39.96585 | 86.80714 | 37817 ft | 450 kts | 277° |
| 2026-05-05 08:01 | 39.97713 | 86.72692 | 37816 ft | 450 kts | 277° |
| 2026-05-05 08:01 | 39.98839 | 86.64645 | 37818 ft | 451 kts | 277° |
| 2026-05-05 08:02 | 39.99960 | 86.56596 | 37814 ft | 451 kts | 277° |
| 2026-05-05 08:02 | 40.01076 | 86.48543 | 37814 ft | 451 kts | 277° |
| 2026-05-05 08:03 | 40.02183 | 86.40503 | 37817 ft | 451 kts | 277° |
| 2026-05-05 08:03 | 40.03286 | 86.32457 | 37808 ft | 451 kts | 277° |
| 2026-05-05 08:04 | 40.04382 | 86.24409 | 37813 ft | 450 kts | 277° |
| 2026-05-05 08:04 | 40.05473 | 86.16361 | 37806 ft | 450 kts | 277° |
| 2026-05-05 08:05 | 40.06556 | 86.08330 | 37808 ft | 450 kts | 277° |
| 2026-05-05 08:05 | 40.07695 | 86.00305 | 37802 ft | 451 kts | 281° |
| 2026-05-05 08:06 | 40.09334 | 85.92378 | 37806 ft | 452 kts | 283° |
| 2026-05-05 08:06 | 40.11067 | 85.84548 | 37802 ft | 452 kts | 283° |
| 2026-05-05 08:07 | 40.12823 | 85.76657 | 37798 ft | 452 kts | 283° |
| 2026-05-05 08:07 | 40.14563 | 85.68766 | 37801 ft | 452 kts | 283° |
| 2026-05-05 08:08 | 40.16292 | 85.60866 | 37801 ft | 452 kts | 283° |
| 2026-05-05 08:08 | 40.18011 | 85.52969 | 37795 ft | 452 kts | 283° |
| 2026-05-05 08:09 | 40.19726 | 85.45063 | 37806 ft | 452 kts | 283° |
| 2026-05-05 08:09 | 40.21437 | 85.37144 | 37799 ft | 452 kts | 283° |
| 2026-05-05 08:10 | 40.23143 | 85.29227 | 37799 ft | 452 kts | 283° |
| 2026-05-05 08:10 | 40.24844 | 85.21303 | 37802 ft | 452 kts | 283° |
| 2026-05-05 08:11 | 40.26541 | 85.13368 | 37799 ft | 452 kts | 283° |
| 2026-05-05 08:11 | 40.28230 | 85.05438 | 37802 ft | 453 kts | 283° |
| 2026-05-05 08:12 | 40.29918 | 84.97484 | 37806 ft | 453 kts | 283° |
| 2026-05-05 08:12 | 40.31602 | 84.89524 | 37802 ft | 453 kts | 283° |
| 2026-05-05 08:13 | 40.33281 | 84.81552 | 37805 ft | 454 kts | 283° |
| 2026-05-05 08:13 | 40.34954 | 84.73580 | 37805 ft | 454 kts | 283° |
| 2026-05-05 08:14 | 40.36616 | 84.65632 | 37794 ft | 455 kts | 283° |
| 2026-05-05 08:14 | 40.38295 | 84.57574 | 37798 ft | 455 kts | 283° |
| 2026-05-05 08:15 | 40.39958 | 84.49558 | 37799 ft | 456 kts | 283° |
| 2026-05-05 08:15 | 40.41607 | 84.41582 | 37803 ft | 456 kts | 283° |
| 2026-05-05 08:16 | 40.43262 | 84.33541 | 37805 ft | 456 kts | 283° |
| 2026-05-05 08:16 | 40.44912 | 84.25499 | 37805 ft | 457 kts | 283° |
| 2026-05-05 08:17 | 40.46559 | 84.17438 | 37807 ft | 457 kts | 283° |
| 2026-05-05 08:17 | 40.48202 | 84.09369 | 37807 ft | 457 kts | 283° |
| 2026-05-05 08:18 | 40.49838 | 84.01300 | 37808 ft | 457 kts | 283° |
| 2026-05-05 08:18 | 40.51471 | 83.93219 | 37808 ft | 458 kts | 283° |
| 2026-05-05 08:19 | 40.53148 | 83.85147 | 37808 ft | 458 kts | 283° |
| 2026-05-05 08:19 | 40.54845 | 83.77084 | 37807 ft | 458 kts | 283° |
| 2026-05-05 08:20 | 40.56537 | 83.69006 | 37809 ft | 458 kts | 283° |
| 2026-05-05 08:20 | 40.58219 | 83.60925 | 37809 ft | 458 kts | 283° |
| 2026-05-05 08:21 | 40.59892 | 83.52839 | 37811 ft | 458 kts | 283° |
| 2026-05-05 08:21 | 40.61559 | 83.44753 | 37814 ft | 458 kts | 283° |
| 2026-05-05 08:22 | 40.63223 | 83.36652 | 37812 ft | 458 kts | 283° |
| 2026-05-05 08:22 | 40.64601 | 83.29921 | 37816 ft | 458 kts | 283° |
| 2026-05-05 08:23 | 40.66253 | 83.21819 | 37815 ft | 458 kts | 283° |
| 2026-05-05 08:23 | 40.67901 | 83.13703 | 37827 ft | 458 kts | 283° |
| 2026-05-05 08:24 | 40.69543 | 83.05590 | 37824 ft | 459 kts | 283° |
| 2026-05-05 08:24 | 40.71180 | 82.97469 | 37829 ft | 459 kts | 283° |
| 2026-05-05 08:25 | 40.72811 | 82.89339 | 37834 ft | 459 kts | 283° |
| 2026-05-05 08:25 | 40.74438 | 82.81200 | 37842 ft | 459 kts | 283° |
| 2026-05-05 08:26 | 40.76060 | 82.73057 | 37837 ft | 459 kts | 283° |
| 2026-05-05 08:26 | 40.77675 | 82.64911 | 37846 ft | 459 kts | 283° |
| 2026-05-05 08:27 | 40.79287 | 82.56752 | 37845 ft | 459 kts | 283° |
| 2026-05-05 08:27 | 40.80892 | 82.48592 | 37846 ft | 460 kts | 283° |
| 2026-05-05 08:28 | 40.82484 | 82.40469 | 37852 ft | 460 kts | 283° |
| 2026-05-05 08:28 | 40.84078 | 82.32300 | 37853 ft | 460 kts | 283° |
| 2026-05-05 08:29 | 40.85669 | 82.24114 | 37854 ft | 460 kts | 283° |
| 2026-05-05 08:30 | 40.88045 | 82.11825 | 37859 ft | 460 kts | 283° |
| 2026-05-05 08:30 | 40.89623 | 82.03619 | 37854 ft | 461 kts | 283° |
| 2026-05-05 08:31 | 40.91195 | 81.95415 | 37860 ft | 461 kts | 283° |
| 2026-05-05 08:31 | 40.92763 | 81.87192 | 37861 ft | 461 kts | 283° |
| 2026-05-05 08:32 | 40.94325 | 81.78971 | 37857 ft | 461 kts | 283° |
| 2026-05-05 08:32 | 40.95881 | 81.70744 | 37858 ft | 461 kts | 283° |
| 2026-05-05 08:33 | 40.97501 | 81.62528 | 37860 ft | 461 kts | 284° |
| 2026-05-05 08:33 | 40.99312 | 81.54380 | 37860 ft | 462 kts | 285° |
| 2026-05-05 08:34 | 41.01167 | 81.46250 | 37853 ft | 462 kts | 285° |
| 2026-05-05 08:34 | 41.03011 | 81.38094 | 37855 ft | 462 kts | 285° |
| 2026-05-05 08:35 | 41.04834 | 81.29938 | 37860 ft | 462 kts | 285° |
| 2026-05-05 08:35 | 41.06648 | 81.21768 | 37861 ft | 462 kts | 285° |
| 2026-05-05 08:36 | 41.08459 | 81.13580 | 37860 ft | 463 kts | 285° |
| 2026-05-05 08:36 | 41.10265 | 81.05390 | 37861 ft | 463 kts | 285° |
| 2026-05-05 08:37 | 41.12066 | 80.97187 | 37859 ft | 463 kts | 285° |
| 2026-05-05 08:37 | 41.13863 | 80.88975 | 37867 ft | 464 kts | 285° |
| 2026-05-05 08:38 | 41.15655 | 80.80757 | 37872 ft | 464 kts | 285° |
| 2026-05-05 08:38 | 41.17430 | 80.72583 | 37875 ft | 464 kts | 285° |
| 2026-05-05 08:39 | 41.19212 | 80.64344 | 37871 ft | 464 kts | 285° |
| 2026-05-05 08:39 | 41.20987 | 80.56109 | 37876 ft | 464 kts | 285° |
| 2026-05-05 08:40 | 41.22759 | 80.47872 | 37881 ft | 464 kts | 285° |
| 2026-05-05 08:40 | 41.24353 | 80.39582 | 37890 ft | 463 kts | 279° |
| 2026-05-05 08:41 | 41.24488 | 80.31095 | 37889 ft | 462 kts | 263° |
| 2026-05-05 08:41 | 41.22655 | 80.22901 | 37888 ft | 464 kts | 248° |
| 2026-05-05 08:42 | 41.19910 | 80.15151 | 37883 ft | 465 kts | 245° |
| 2026-05-05 08:42 | 41.17041 | 80.07452 | 37889 ft | 465 kts | 245° |
| 2026-05-05 08:43 | 41.14180 | 79.99755 | 37892 ft | 465 kts | 245° |
| 2026-05-05 08:43 | 41.11342 | 79.92046 | 37893 ft | 465 kts | 245° |
| 2026-05-05 08:44 | 41.08529 | 79.84362 | 37890 ft | 465 kts | 245° |
| 2026-05-05 08:44 | 41.05696 | 79.76628 | 37898 ft | 465 kts | 245° |
| 2026-05-05 08:45 | 41.02865 | 79.68925 | 37907 ft | 465 kts | 245° |
| 2026-05-05 08:45 | 41.00030 | 79.61233 | 37913 ft | 465 kts | 245° |
| 2026-05-05 08:46 | 40.97185 | 79.53536 | 37928 ft | 465 kts | 245° |
| 2026-05-05 08:46 | 40.94333 | 79.45843 | 37935 ft | 465 kts | 245° |
| 2026-05-05 08:47 | 40.91482 | 79.38170 | 37952 ft | 466 kts | 245° |
| 2026-05-05 08:47 | 40.88616 | 79.30478 | 37960 ft | 466 kts | 245° |
| 2026-05-05 08:48 | 40.85760 | 79.22839 | 37969 ft | 467 kts | 244° |
| 2026-05-05 08:48 | 40.82815 | 79.15196 | 37971 ft | 467 kts | 244° |
| 2026-05-05 08:49 | 40.79834 | 79.07550 | 37979 ft | 468 kts | 244° |
| 2026-05-05 08:49 | 40.76852 | 78.99926 | 37980 ft | 468 kts | 244° |
| 2026-05-05 08:50 | 40.73859 | 78.92289 | 37980 ft | 468 kts | 244° |
| 2026-05-05 08:50 | 40.70820 | 78.84700 | 37981 ft | 468 kts | 243° |
| 2026-05-05 08:51 | 40.67760 | 78.77117 | 37987 ft | 468 kts | 243° |
| 2026-05-05 08:51 | 40.64702 | 78.69551 | 37991 ft | 468 kts | 243° |
| 2026-05-05 08:52 | 40.61635 | 78.61981 | 37991 ft | 468 kts | 243° |
| 2026-05-05 08:52 | 40.58565 | 78.54419 | 37995 ft | 468 kts | 243° |
| 2026-05-05 08:53 | 40.55490 | 78.46866 | 38003 ft | 468 kts | 243° |
| 2026-05-05 08:53 | 40.52409 | 78.39315 | 38003 ft | 469 kts | 243° |
| 2026-05-05 08:54 | 40.49325 | 78.31777 | 38005 ft | 469 kts | 243° |
| 2026-05-05 08:54 | 40.46234 | 78.24240 | 38011 ft | 469 kts | 243° |
| 2026-05-05 08:55 | 40.43136 | 78.16705 | 38004 ft | 469 kts | 243° |
| 2026-05-05 08:55 | 40.40053 | 78.09223 | 38004 ft | 469 kts | 243° |
| 2026-05-05 08:55 | 40.38502 | 78.05469 | 37749 ft | 466 kts | 243° |
| 2026-05-05 08:56 | 40.36956 | 78.01730 | 36945 ft | 468 kts | 242° |
| 2026-05-05 08:56 | 40.35403 | 77.97975 | 36218 ft | 469 kts | 242° |
| 2026-05-05 08:56 | 40.33844 | 77.94216 | 35537 ft | 469 kts | 242° |
| 2026-05-05 08:56 | 40.32287 | 77.90462 | 34812 ft | 470 kts | 242° |
| 2026-05-05 08:57 | 40.30721 | 77.86693 | 34043 ft | 473 kts | 242° |
| 2026-05-05 08:57 | 40.29142 | 77.82899 | 33170 ft | 475 kts | 242° |
| 2026-05-05 08:57 | 40.27557 | 77.79095 | 32338 ft | 477 kts | 242° |
| 2026-05-05 08:57 | 40.25965 | 77.75278 | 31492 ft | 478 kts | 242° |
| 2026-05-05 08:58 | 40.24365 | 77.71446 | 30631 ft | 481 kts | 242° |
| 2026-05-05 08:58 | 40.22756 | 77.67599 | 29713 ft | 484 kts | 242° |
| 2026-05-05 08:58 | 40.21137 | 77.63731 | 28808 ft | 485 kts | 242° |
| 2026-05-05 08:58 | 40.19527 | 77.59890 | 28174 ft | 479 kts | 242° |
| 2026-05-05 08:59 | 40.17928 | 77.56081 | 27549 ft | 475 kts | 242° |
| 2026-05-05 08:59 | 40.16345 | 77.52313 | 26911 ft | 471 kts | 242° |
| 2026-05-05 08:59 | 40.14773 | 77.48578 | 26278 ft | 467 kts | 241° |
| 2026-05-05 08:59 | 40.13209 | 77.44866 | 25644 ft | 464 kts | 241° |
| 2026-05-05 09:00 | 40.11656 | 77.41184 | 25020 ft | 461 kts | 241° |
| 2026-05-05 09:00 | 40.10115 | 77.37533 | 24401 ft | 457 kts | 241° |
| 2026-05-05 09:00 | 40.08584 | 77.33915 | 23782 ft | 454 kts | 241° |
| 2026-05-05 09:00 | 40.07062 | 77.30319 | 23114 ft | 451 kts | 241° |
| 2026-05-05 09:01 | 40.05549 | 77.26748 | 22457 ft | 447 kts | 241° |
| 2026-05-05 09:01 | 40.04052 | 77.23220 | 21841 ft | 442 kts | 241° |
| 2026-05-05 09:01 | 40.02570 | 77.19731 | 21225 ft | 437 kts | 241° |
| 2026-05-05 09:01 | 40.01103 | 77.16282 | 20607 ft | 433 kts | 241° |
| 2026-05-05 09:02 | 39.99648 | 77.12865 | 19999 ft | 429 kts | 241° |
| 2026-05-05 09:02 | 39.98205 | 77.09479 | 19378 ft | 426 kts | 241° |
| 2026-05-05 09:02 | 39.96771 | 77.06117 | 18759 ft | 423 kts | 241° |
| 2026-05-05 09:02 | 39.95352 | 77.02794 | 18137 ft | 420 kts | 241° |
| 2026-05-05 09:03 | 39.93927 | 76.99462 | 17450 ft | 417 kts | 241° |
| 2026-05-05 09:03 | 39.92554 | 76.96156 | 16842 ft | 412 kts | 242° |
| 2026-05-05 09:03 | 39.91231 | 76.92868 | 16229 ft | 408 kts | 243° |
| 2026-05-05 09:03 | 39.89923 | 76.89602 | 15616 ft | 404 kts | 242° |
| 2026-05-05 09:04 | 39.88628 | 76.86373 | 15000 ft | 401 kts | 242° |
| 2026-05-05 09:04 | 39.87341 | 76.83174 | 14373 ft | 398 kts | 242° |
| 2026-05-05 09:04 | 39.86077 | 76.80035 | 13756 ft | 395 kts | 242° |
| 2026-05-05 09:04 | 39.84789 | 76.76839 | 13079 ft | 392 kts | 242° |
| 2026-05-05 09:05 | 39.83529 | 76.73720 | 12448 ft | 387 kts | 242° |
| 2026-05-05 09:05 | 39.82285 | 76.70643 | 11998 ft | 379 kts | 242° |
| 2026-05-05 09:05 | 39.81089 | 76.67686 | 11852 ft | 362 kts | 242° |
| 2026-05-05 09:05 | 39.79936 | 76.64840 | 11715 ft | 347 kts | 242° |
| 2026-05-05 09:06 | 39.78851 | 76.62165 | 11602 ft | 332 kts | 242° |
| 2026-05-05 09:06 | 39.77797 | 76.59567 | 11453 ft | 319 kts | 242° |
| 2026-05-05 09:06 | 39.76780 | 76.57066 | 11341 ft | 306 kts | 242° |
| 2026-05-05 09:06 | 39.75803 | 76.54661 | 11211 ft | 295 kts | 242° |
| 2026-05-05 09:07 | 39.74862 | 76.52349 | 11085 ft | 284 kts | 242° |
| 2026-05-05 09:07 | 39.73953 | 76.50117 | 10955 ft | 275 kts | 242° |
| 2026-05-05 09:07 | 39.73075 | 76.47962 | 10840 ft | 265 kts | 242° |
| 2026-05-05 09:07 | 39.72226 | 76.45879 | 10701 ft | 256 kts | 242° |
| 2026-05-05 09:08 | 39.71407 | 76.43874 | 10565 ft | 248 kts | 242° |
| 2026-05-05 09:08 | 39.70607 | 76.41919 | 10342 ft | 244 kts | 242° |
| 2026-05-05 09:08 | 39.69619 | 76.40157 | 10106 ft | 241 kts | 224° |
| 2026-05-05 09:08 | 39.68318 | 76.38800 | 9873 ft | 241 kts | 217° |
| 2026-05-05 09:09 | 39.66925 | 76.37532 | 9607 ft | 247 kts | 216° |
| 2026-05-05 09:09 | 39.65506 | 76.36265 | 9337 ft | 247 kts | 216° |
| 2026-05-05 09:09 | 39.64093 | 76.34999 | 9088 ft | 246 kts | 216° |
| 2026-05-05 09:09 | 39.62681 | 76.33742 | 9034 ft | 245 kts | 215° |
| 2026-05-05 09:10 | 39.61314 | 76.32523 | 9018 ft | 231 kts | 216° |
| 2026-05-05 09:10 | 39.60453 | 76.31751 | 9022 ft | 225 kts | 216° |
| 2026-05-05 09:10 | 39.59175 | 76.30597 | 9035 ft | 223 kts | 216° |
| 2026-05-05 09:10 | 39.57886 | 76.29430 | 9037 ft | 223 kts | 217° |
| 2026-05-05 09:11 | 39.56641 | 76.28277 | 9000 ft | 222 kts | 220° |
| 2026-05-05 09:11 | 39.55688 | 76.26783 | 8693 ft | 211 kts | 246° |
| 2026-05-05 09:11 | 39.55373 | 76.24980 | 8157 ft | 204 kts | 268° |
| 2026-05-05 09:11 | 39.55363 | 76.23150 | 7528 ft | 204 kts | 271° |
| 2026-05-05 09:12 | 39.55306 | 76.21316 | 7006 ft | 203 kts | 266° |
| 2026-05-05 09:12 | 39.55185 | 76.19533 | 6810 ft | 193 kts | 266° |
| 2026-05-05 09:12 | 39.55094 | 76.17837 | 6599 ft | 184 kts | 267° |
| 2026-05-05 09:12 | 39.55012 | 76.16211 | 6373 ft | 178 kts | 268° |
| 2026-05-05 09:13 | 39.54925 | 76.14632 | 6160 ft | 174 kts | 268° |
| 2026-05-05 09:13 | 39.54840 | 76.13093 | 5932 ft | 168 kts | 266° |
| 2026-05-05 09:13 | 39.54758 | 76.11623 | 5716 ft | 159 kts | 268° |
| 2026-05-05 09:13 | 39.54688 | 76.10232 | 5524 ft | 150 kts | 268° |
| 2026-05-05 09:14 | 39.54616 | 76.08905 | 5324 ft | 147 kts | 267° |
| 2026-05-05 09:14 | 39.54546 | 76.07582 | 5119 ft | 147 kts | 267° |
| 2026-05-05 09:14 | 39.54475 | 76.06287 | 4904 ft | 142 kts | 267° |
| 2026-05-05 09:14 | 39.54407 | 76.05009 | 4719 ft | 145 kts | 266° |
| 2026-05-05 09:15 | 39.54331 | 76.03703 | 4564 ft | 145 kts | 267° |
| 2026-05-05 09:15 | 39.54268 | 76.02464 | 4527 ft | 122 kts | 266° |
| 2026-05-05 09:15 | 39.54228 | 76.01734 | 4529 ft | 38 kts | 266° |
| 2026-05-05 09:15 | 39.54219 | 76.01555 | 4526 ft | 17 kts | 266° |
| 2026-05-05 09:16 | 39.54187 | 76.01422 | 4527 ft | 14 kts | 221° |
| 2026-05-05 09:16 | 39.54097 | 76.01406 | 4526 ft | 13 kts | 176° |
| 2026-05-05 09:16 | 39.54000 | 76.01413 | 4527 ft | 14 kts | 177° |
| 2026-05-05 09:16 | 39.53901 | 76.01413 | 4525 ft | 13 kts | 202° |
| 2026-05-05 09:17 | 39.53870 | 76.01330 | 4525 ft | 10 kts | 261° |
| 2026-05-05 09:17 | 39.53864 | 76.01238 | 4528 ft | 11 kts | 265° |
| 2026-05-05 09:17 | 39.53859 | 76.01136 | 4525 ft | 12 kts | 266° |
| 2026-05-05 09:17 | 39.53853 | 76.01027 | 4526 ft | 13 kts | 266° |
| 2026-05-05 09:18 | 39.53847 | 76.00911 | 4527 ft | 12 kts | 266° |
| 2026-05-05 09:18 | 39.53821 | 76.00831 | 4524 ft | 8 kts | 213° |
| 2026-05-05 09:18 | 39.53778 | 76.00826 | 4526 ft | 6 kts | 176° |
| 2026-05-05 09:18 | 39.53752 | 76.00829 | 4526 ft | 0 kts | 175° |